• Join FlightAware (Why Join?)
  • Login
  • US Flag 
02:48AM EDT


 

Airport Tracker/Info


-or-


 

Live Flight TrackerFlight Track Log ✈ TAM3545 ✈ 30-Mar-2014 ✈ SBBE / BEL - SBGR / GRU

Flight Track Log - Related Links

Times and Time Zones

All times are in EDT time to prevent confusion due to time zone crossing. See the TAM3545 flight status page for this flight to view local times or setup timezone preferences in your user account.

Time Position Orientation Groundspeed Altitude Reporting Facility
EDT Latitude Longitude Course Direction KTS MPH feet Rate Location/Type
01:50AM -2.9759 -48.4571 179° South 441 507 25,600  Level FlightAware ADS-B (SBIZ / IMP)
01:51AM -3.0710 -48.4557 179° South 441 507 26,400 900 Climbing FlightAware ADS-B (SBIZ / IMP)
01:52AM -3.1355 -48.4550 179° South 448 516 26,700 540 Climbing FlightAware ADS-B (SBIZ / IMP)
01:52AM -3.2037 -48.4540 179° South 453 521 27,000 720 Climbing FlightAware ADS-B (SBIZ / IMP)
01:53AM -3.2708 -48.4531 179° South 455 524 27,500 840 Climbing FlightAware ADS-B (SBIZ / IMP)
01:53AM -3.3383 -48.4522 179° South 456 525 27,900 660 Climbing FlightAware ADS-B (SBIZ / IMP)
01:54AM -3.3990 -48.4514 179° South 459 528 28,200 600 Climbing FlightAware ADS-B (SBIZ / IMP)
01:54AM -3.4749 -48.4503 179° South 463 533 28,600 540 Climbing FlightAware ADS-B (SBIZ / IMP)
01:55AM -3.5343 -48.4495 179° South 466 536 28,800 540 Climbing FlightAware ADS-B (SBIZ / IMP)
01:55AM -3.6110 -48.4486 179° South 468 539 29,200 720 Climbing FlightAware ADS-B (SBIZ / IMP)
01:56AM -3.6796 -48.4477 179° South 469 540 29,600 720 Climbing FlightAware ADS-B (SBIZ / IMP)
01:56AM -3.7526 -48.4467 179° South 469 540 30,000 720 Climbing FlightAware ADS-B (SBIZ / IMP)
01:57AM -3.8377 -48.4455 179° South 469 540 30,500 720 Climbing FlightAware ADS-B (SBIZ / IMP)
01:58AM -3.9110 -48.4445 179° South 470 541 30,900 720 Climbing FlightAware ADS-B (SBIZ / IMP)
01:58AM -3.9894 -48.4436 179° South 469 540 31,400 840 Climbing FlightAware ADS-B (SBIZ / IMP)
01:59AM -4.0642 -48.4426 179° South 466 536 31,900 780 Climbing FlightAware ADS-B (SBIZ / IMP)
01:59AM -4.1300 -48.4417 179° South 465 535 32,300 960 Climbing FlightAware ADS-B (SBIZ / IMP)
02:00AM -4.2039 -48.4407 179° South 457 526 33,000 900 Climbing FlightAware ADS-B (SBIZ / IMP)
02:00AM -4.2694 -48.4398 179° South 458 527 33,300 660 Climbing FlightAware ADS-B (SBIZ / IMP)
02:01AM -4.3325 -48.4390 179° South 456 525 33,700 900 Climbing FlightAware ADS-B (SBIZ / IMP)
02:01AM -4.3955 -48.4382 179° South 450 518 34,200 780 Climbing FlightAware ADS-B (SBIZ / IMP)
02:02AM -4.4594 -48.4374 179° South 450 518 34,500 660 Climbing FlightAware ADS-B (SBIZ / IMP)
02:02AM -4.5208 -48.4366 179° South 447 514 34,900 420 Climbing FlightAware ADS-B (SBIZ / IMP)
02:03AM -4.5990 -48.4356 179° South 449 517 35,000 60 Climbing FlightAware ADS-B (SBIZ / IMP)
02:03AM -4.6470 -48.4349 179° South 448 516 35,000  Level FlightAware ADS-B (SBIZ / IMP)
02:04AM -4.7273 -48.4338 179° South 447 514 35,000  Level FlightAware ADS-B (SBIZ / IMP)
02:05AM -4.7910 -48.4329 179° South 449 517 35,000  Level FlightAware ADS-B (SBIZ / IMP)
02:05AM -4.8579 -48.4319 178° South 452 520 35,000  Level FlightAware ADS-B (SBIZ / IMP)
02:06AM -4.9125 -48.4311 179° South 453 521 35,000  Level FlightAware ADS-B (SBIZ / IMP)
02:06AM -4.9773 -48.4303 179° South 453 521 35,000  Level FlightAware ADS-B (SBIZ / IMP)
02:07AM -5.0442 -48.4295 179° South 455 524 35,000  Level FlightAware ADS-B (SBIZ / IMP)
02:07AM -5.1033 -48.4287 179° South 455 524 35,000  Level FlightAware ADS-B (SBIZ / IMP)
02:08AM -5.1729 -48.4277 179° South 454 522 35,000  Level FlightAware ADS-B (SBIZ / IMP)
02:08AM -5.2352 -48.4268 179° South 454 522 35,000  Level FlightAware ADS-B (SBIZ / IMP)
02:09AM -5.2936 -48.4260 179° South 454 522 35,000  Level FlightAware ADS-B (SBIZ / IMP)
02:09AM -5.3532 -48.4252 179° South 453 521 35,000  Level FlightAware ADS-B (SBIZ / IMP)
02:10AM -5.4180 -48.4242 179° South 452 520 35,000  Level FlightAware ADS-B (SBIZ / IMP)
02:10AM -5.4864 -48.4233 179° South 452 520 35,000  Level FlightAware ADS-B (SBIZ / IMP)
02:10AM -5.5392 -48.4227 179° South 451 519 35,000  Level FlightAware ADS-B (SBIZ / IMP)
02:11AM -5.6025 -48.4219 179° South 450 518 35,000  Level FlightAware ADS-B (SBIZ / IMP)
02:12AM -5.6729 -48.4210 179° South 450 518 35,000  Level FlightAware ADS-B (SBIZ / IMP)
02:12AM -5.7296 -48.4202 179° South 450 518 35,000  Level FlightAware ADS-B (SBIZ / IMP)
02:13AM -5.7976 -48.4193 179° South 450 518 35,000  Level FlightAware ADS-B (SBIZ / IMP)
02:13AM -5.8646 -48.4184 179° South 448 516 35,000  Level FlightAware ADS-B (SBIZ / IMP)
02:13AM -5.9147 -48.4176 179° South 448 516 35,000  Level FlightAware ADS-B (SBIZ / IMP)
02:14AM -5.9830 -48.4168 179° South 446 513 35,000  Level FlightAware ADS-B (SBIZ / IMP)
02:14AM -6.0387 -48.4160 179° South 445 512 35,000  Level FlightAware ADS-B (SBIZ / IMP)
02:15AM -6.1422 -48.4146 179° South 445 512 35,000  Level FlightAware ADS-B (SBIZ / IMP)
02:16AM -6.2097 -48.4137 179° South 446 513 35,000  Level FlightAware ADS-B (SBIZ / IMP)
02:16AM -6.2585 -48.4131 179° South 446 513 35,000  Level FlightAware ADS-B (SBIZ / IMP)
02:17AM -6.3653 -48.4116 179° South 445 512 35,000  Level FlightAware ADS-B (SBIZ / IMP)
02:18AM -6.4286 -48.4107 179° South 445 512 35,000  Level FlightAware ADS-B (SBIZ / IMP)
02:18AM -6.4932 -48.4098 179° South 444 511 35,000  Level FlightAware ADS-B (SBIZ / IMP)
02:19AM -6.5534 -48.4090 179° South 444 511 35,000  Level FlightAware ADS-B (SBIZ / IMP)
02:19AM -6.6161 -48.4082 179° South 443 510 35,000  Level FlightAware ADS-B (SBIZ / IMP)
02:20AM -6.6408 -48.4079 179° South 443 510 35,000  Level FlightAware ADS-B (SBIZ / IMP)
02:20AM -6.7294 -48.4067 179° South 443 510 35,000  Level FlightAware ADS-B (SBIZ / IMP)
02:21AM -6.7943 -48.4059 179° South 443 510 35,000  Level FlightAware ADS-B (SBIZ / IMP)
02:21AM -6.8645 -48.4049 179° South 444 511 35,000  Level FlightAware ADS-B (SBIZ / IMP)
02:22AM -6.9251 -48.4040 179° South 444 511 35,000  Level FlightAware ADS-B (SBIZ / IMP)
02:22AM -6.9852 -48.4032 179° South 445 512 35,000  Level FlightAware ADS-B (SBIZ / IMP)
02:23AM -7.0497 -48.4023 179° South 446 513 35,000  Level FlightAware ADS-B (SBIZ / IMP)
02:23AM -7.1013 -48.4016 179° South 446 513 35,000  Level FlightAware ADS-B (SBIZ / IMP)
02:24AM -7.1625 -48.4008 179° South 446 513 35,000  Level FlightAware ADS-B (SBIZ / IMP)
02:24AM -7.2298 -48.3999 179° South 446 513 35,000  Level FlightAware ADS-B (SBIZ / IMP)
02:25AM -7.2879 -48.3990 179° South 446 513 35,000  Level FlightAware ADS-B (SBIZ / IMP)
02:25AM -7.3529 -48.3981 179° South 445 512 35,000  Level FlightAware ADS-B (SBIZ / IMP)
02:26AM -7.4148 -48.3973 179° South 445 512 35,000  Level FlightAware ADS-B (SBIZ / IMP)
02:26AM -7.4840 -48.3964 179° South 444 511 35,000  Level FlightAware ADS-B (SBIZ / IMP)
02:27AM -7.5384 -48.3957 179° South 444 511 35,000  Level FlightAware ADS-B (SBIZ / IMP)
02:27AM -7.5901 -48.3949 179° South 445 512 35,000  Level FlightAware ADS-B (SBIZ / IMP)
02:28AM -7.6666 -48.3939 179° South 447 514 35,000  Level FlightAware ADS-B (SBIZ / IMP)
02:28AM -7.7275 -48.3931 179° South 448 516 35,000  Level FlightAware ADS-B (SBIZ / IMP)
02:28AM -7.7665 -48.3926 179° South 449 517 35,000  Level FlightAware ADS-B (SBIZ / IMP)
02:29AM -7.8543 -48.3914 179° South 451 519 35,000  Level FlightAware ADS-B (SBIZ / IMP)
02:30AM -7.9171 -48.3905 179° South 451 519 35,000  Level FlightAware ADS-B (SBIZ / IMP)
02:30AM -7.9418 -48.3902 179° South 451 519 35,000  Level FlightAware ADS-B (SBIZ / IMP)
02:31AM -8.0344 -48.3890 179° South 451 519 35,000  Level FlightAware ADS-B (SBIZ / IMP)
02:31AM -8.0877 -48.3882 179° South 447 514 35,000  Level FlightAware ADS-B (SBIZ / IMP)
02:31AM -8.1038 -48.3880 179° South 446 513 35,000  Level FlightAware ADS-B (SBIZ / IMP)
02:32AM -8.2409 -48.3861 179° South 441 507 35,000  Level FlightAware ADS-B (SBIZ / IMP)
02:33AM -8.2878 -48.3855 179° South 443 510 35,000  Level FlightAware ADS-B (SBIZ / IMP)
02:33AM -8.3047 -48.3853 179° South 443 510 35,000 60 Level FlightAware ADS-B (SBIZ / IMP)
02:34AM -8.4729 -48.3810 181° South 444 511 35,100  Climbing FlightAware ADS-B (SBIZ / IMP)
02:35AM -8.5319 -48.3814 181° South 443 510 35,000 -120 Descending FlightAware ADS-B (SBIZ / IMP)
02:35AM -8.6111 -48.3810 179° South 442 509 35,000  Level FlightAware ADS-B (SBIZ / IMP)
02:35AM -8.6167 -48.3809 179° South 442 509 35,000  Level FlightAware ADS-B (SBIZ / IMP)
02:36AM -8.7646 -48.3791 179° South 442 509 35,000  Level FlightAware ADS-B (SBIZ / IMP)
02:37AM -8.8136 -48.3784 179° South 443 510 35,000  Level FlightAware ADS-B (SBIZ / IMP)
02:37AM -8.8333 -48.3782 179° South 443 510 35,000  Level FlightAware ADS-B (SBIZ / IMP)
03:07AM -12.5799 -47.9307 171° South 449 517 35,000  Level FlightAware ADS-B (SBBR / BSB)
03:08AM -12.7012 -47.9112 170° South 446 513 35,000  Level FlightAware ADS-B (SBBR / BSB)
03:09AM -12.7738 -47.8996 171° South 446 513 35,000  Level FlightAware ADS-B (SBBR / BSB)
03:09AM -12.8364 -47.8895 171° South 445 512 35,000  Level FlightAware ADS-B (SBBR / BSB)
03:10AM -12.8890 -47.8811 170° South 445 512 35,000  Level FlightAware ADS-B (SBBR / BSB)
03:10AM -12.9411 -47.8727 171° South 445 512 35,000  Level FlightAware ADS-B (SBBR / BSB)
03:11AM -13.0169 -47.8606 170° South 446 513 35,000  Level FlightAware ADS-B (SBBR / BSB)
03:11AM -13.0739 -47.8514 171° South 447 514 35,000  Level FlightAware ADS-B (SBBR / BSB)
03:12AM -13.1435 -47.8402 171° South 448 516 35,000  Level FlightAware ADS-B (SBBR / BSB)
03:12AM -13.2008 -47.8309 171° South 448 516 35,000  Level FlightAware ADS-B (SBBR / BSB)
03:13AM -13.2600 -47.8214 171° South 448 516 35,000  Level FlightAware ADS-B (SBBR / BSB)
03:13AM -13.3222 -47.8113 171° South 447 514 35,000  Level FlightAware ADS-B (SBBR / BSB)
03:14AM -13.3822 -47.8017 171° South 447 514 35,000  Level FlightAware ADS-B (SBBR / BSB)
03:14AM -13.4477 -47.7910 170° South 446 513 35,000  Level FlightAware ADS-B (SBBR / BSB)
03:15AM -13.5072 -47.7815 171° South 447 514 35,000  Level FlightAware ADS-B (SBBR / BSB)
03:15AM -13.5678 -47.7716 171° South 447 514 35,000  Level FlightAware ADS-B (SBBR / BSB)
03:16AM -13.6301 -47.7616 171° South 447 514 35,000  Level FlightAware ADS-B (SBBR / BSB)
03:16AM -13.6951 -47.7511 171° South 447 514 35,000  Level FlightAware ADS-B (SBBR / BSB)
03:17AM -13.7542 -47.7416 171° South 448 516 35,000  Level FlightAware ADS-B (SBBR / BSB)
03:17AM -13.8207 -47.7308 171° South 448 516 35,000  Level FlightAware ADS-B (SBBR / BSB)
03:18AM -13.8834 -47.7206 171° South 447 514 35,000  Level FlightAware ADS-B (SBBR / BSB)
03:18AM -13.9420 -47.7111 171° South 447 514 35,000  Level FlightAware ADS-B (SBBR / BSB)
03:19AM -14.0001 -47.7017 171° South 447 514 35,000  Level FlightAware ADS-B (SBBR / BSB)
03:19AM -14.0600 -47.6920 171° South 447 514 35,000  Level FlightAware ADS-B (SBBR / BSB)
03:20AM -14.1245 -47.6815 171° South 447 514 35,000  Level FlightAware ADS-B (SBBR / BSB)
03:20AM -14.1817 -47.6722 171° South 447 514 35,000  Level FlightAware ADS-B (SBBR / BSB)
03:21AM -14.2511 -47.6610 170° South 446 513 35,000  Level FlightAware ADS-B (SBBR / BSB)
03:21AM -14.3099 -47.6514 170° South 446 513 35,000  Level FlightAware ADS-B (SBBR / BSB)
03:22AM -14.3709 -47.6414 170° South 446 513 35,000  Level FlightAware ADS-B (SBBR / BSB)
03:22AM -14.4300 -47.6318 170° South 446 513 35,000  Level FlightAware ADS-B (SBBR / BSB)
03:23AM -14.4961 -47.6211 171° South 447 514 35,000  Level FlightAware ADS-B (SBBR / BSB)
03:23AM -14.5555 -47.6114 171° South 447 514 35,000  Level FlightAware ADS-B (SBBR / BSB)
03:24AM -14.6151 -47.6017 171° South 448 516 35,000  Level FlightAware ADS-B (SBBR / BSB)
03:24AM -14.6674 -47.5932 170° South 448 516 35,000  Level FlightAware ADS-B (SBBR / BSB)
03:25AM -14.7317 -47.5826 171° South 448 516 35,000  Level FlightAware ADS-B (SBBR / BSB)
03:25AM -14.7970 -47.5720 171° South 447 514 35,000  Level FlightAware ADS-B (SBBR / BSB)
03:26AM -14.8602 -47.5616 170° South 445 512 35,000  Level FlightAware ADS-B (SBBR / BSB)
03:26AM -14.9198 -47.5520 170° South 444 511 35,000  Level FlightAware ADS-B (SBBR / BSB)
03:27AM -14.9830 -47.5416 170° South 443 510 35,000  Level FlightAware ADS-B (SBBR / BSB)
03:27AM -15.0451 -47.5314 170° South 443 510 35,000  Level FlightAware ADS-B (SBBR / BSB)
03:28AM -15.1034 -47.5218 170° South 442 509 35,000  Level FlightAware ADS-B (SBBR / BSB)
03:28AM -15.1632 -47.5120 170° South 442 509 35,000  Level FlightAware ADS-B (SBBR / BSB)
03:29AM -15.2302 -47.5010 170° South 443 510 35,000  Level FlightAware ADS-B (SBBR / BSB)
03:29AM -15.2900 -47.4912 170° South 443 510 35,000  Level FlightAware ADS-B (SBBR / BSB)
03:30AM -15.3476 -47.4818 171° South 444 511 35,000  Level FlightAware ADS-B (SBBR / BSB)
03:30AM -15.4140 -47.4709 170° South 443 510 35,000  Level FlightAware ADS-B (SBBR / BSB)
03:31AM -15.4757 -47.4608 170° South 443 510 35,000  Level FlightAware ADS-B (SBBR / BSB)
03:31AM -15.5303 -47.4518 170° South 444 511 35,000  Level FlightAware ADS-B (SBBR / BSB)
03:32AM -15.5928 -47.4415 171° South 444 511 35,000  Level FlightAware ADS-B (SBBR / BSB)
03:32AM -15.6521 -47.4318 170° South 444 511 35,000  Level FlightAware ADS-B (SBBR / BSB)
03:33AM -15.7122 -47.4219 170° South 444 511 35,000  Level FlightAware ADS-B (SBBR / BSB)
03:33AM -15.7770 -47.4112 170° South 444 511 35,000  Level FlightAware ADS-B (SBBR / BSB)
03:34AM -15.8404 -47.4007 170° South 443 510 35,000  Level FlightAware ADS-B (SBBR / BSB)
03:34AM -15.8965 -47.3914 170° South 442 509 35,000  Level FlightAware ADS-B (SBBR / BSB)
03:35AM -15.9589 -47.3811 170° South 441 507 35,000  Level FlightAware ADS-B (SBBR / BSB)
03:35AM -15.9990 -47.3785 182° South 440 506 35,000  Level FlightAware ADS-B (SBBR / BSB)
03:36AM -16.0720 -47.3816 175° South 441 507 35,000  Level FlightAware ADS-B (SBBR / BSB)
03:36AM -16.1135 -47.3730 162° South 444 511 35,000  Level FlightAware ADS-B (SBBR / BSB)
03:36AM -16.1494 -47.3561 150° Southeast 448 516 35,000  Level FlightAware ADS-B (SBBR / BSB)
03:37AM -16.1872 -47.3273 139° Southeast 451 519 35,000  Level FlightAware ADS-B (SBBR / BSB)
03:37AM -16.2404 -47.2753 136° Southeast 451 519 35,000  Level FlightAware ADS-B (SBBR / BSB)
03:38AM -16.2832 -47.2330 136° Southeast 449 517 35,000  Level FlightAware ADS-B (SBBR / BSB)
03:38AM -16.3309 -47.1894 141° Southeast 447 514 35,000  Level FlightAware ADS-B (SBBR / BSB)
03:39AM -16.3866 -47.1401 133° Southeast 451 519 35,000  Level FlightAware ADS-B (SBBR / BSB)
03:40AM -16.4505 -47.0535 126° Southeast 452 520 35,000  Level FlightAware ADS-B (SBBR / BSB)
03:40AM -16.4877 -47.0004 125° Southeast 451 519 35,000  Level FlightAware ADS-B (SBBR / BSB)
03:41AM -16.5216 -46.9523 126° Southeast 450 518 35,000  Level FlightAware ADS-B (SBBR / BSB)
03:41AM -16.5612 -46.8964 126° Southeast 449 517 35,000  Level FlightAware ADS-B (SBBR / BSB)
03:42AM -16.5974 -46.8466 127° Southeast 449 517 35,000  Level FlightAware ADS-B (SBBR / BSB)
03:42AM -16.6371 -46.7919 126° Southeast 450 518 35,000  Level FlightAware ADS-B (SBBR / BSB)
03:43AM -16.6746 -46.7388 126° Southeast 451 519 35,000  Level FlightAware ADS-B (SBBR / BSB)
03:43AM -16.7198 -46.6794 131° Southeast 451 519 35,000  Level FlightAware ADS-B (SBBR / BSB)
03:44AM -16.7624 -46.6308 131° Southeast 451 519 35,000  Level FlightAware ADS-B (SBBR / BSB)
03:44AM -16.8036 -46.5830 131° Southeast 450 518 35,000  Level FlightAware ADS-B (SBBR / BSB)
03:45AM -16.8580 -46.5195 133° Southeast 444 511 35,000  Level FlightAware ADS-B (SBBR / BSB)
03:45AM -16.8901 -46.4913 144° Southeast 439 505 35,000  Level FlightAware ADS-B (SBBR / BSB)
03:46AM -16.9585 -46.4448 147° Southeast 443 510 35,000  Level FlightAware ADS-B (SBBR / BSB)
03:47AM -17.0101 -46.4100 147° Southeast 444 511 35,000  Level FlightAware ADS-B (SBBR / BSB)
03:47AM -17.0603 -46.3765 147° Southeast 447 514 35,000  Level FlightAware ADS-B (SBBR / BSB)
03:48AM -17.1193 -46.3403 154° Southeast 448 516 35,000  Level FlightAware ADS-B (SBBR / BSB)
03:48AM -17.1718 -46.3168 157° South 449 517 35,000  Level FlightAware ADS-B (SBBR / BSB)
04:08AM -19.5591 -46.2678 181° South 436 502 36,000  Climbing FlightAware ADS-B (SDAM)
04:08AM -19.6158 -46.2682 181° South 437 503 36,000  Level FlightAware ADS-B (SDAM)
04:09AM -19.6710 -46.2686 181° South 439 505 36,000  Level FlightAware ADS-B (SDAM)
04:09AM -19.7454 -46.2691 181° South 439 505 36,000  Level FlightAware ADS-B (SDAM)
04:10AM -19.8047 -46.2695 181° South 439 505 36,000  Level FlightAware ADS-B (SDAM)
04:10AM -19.8668 -46.2700 181° South 439 505 36,000  Level FlightAware ADS-B (SDAM)
04:11AM -19.9282 -46.2705 181° South 440 506 36,000  Level FlightAware ADS-B (SDAM)
04:11AM -19.9901 -46.2709 181° South 439 505 36,000  Level FlightAware ADS-B (SDAM)
04:12AM -20.0502 -46.2713 181° South 436 502 36,000  Level FlightAware ADS-B (SDAM)
04:12AM -20.1096 -46.2718 181° South 434 499 36,000  Level FlightAware ADS-B (SDAM)
04:13AM -20.1638 -46.2722 181° South 433 498 36,000  Level FlightAware ADS-B (SDAM)
04:13AM -20.2294 -46.2726 181° South 430 495 36,000  Level FlightAware ADS-B (SDAM)
04:14AM -20.2868 -46.2730 181° South 429 494 36,000  Level FlightAware ADS-B (SDAM)
04:14AM -20.3487 -46.2735 181° South 429 494 36,000  Level FlightAware ADS-B (SDAM)
04:15AM -20.4114 -46.2740 181° South 428 493 36,000  Level FlightAware ADS-B (SDAM)
04:15AM -20.4676 -46.2745 181° South 427 491 36,000  Level FlightAware ADS-B (SDAM)
04:16AM -20.5292 -46.2749 181° South 427 491 36,000  Level FlightAware ADS-B (SDAM)
04:16AM -20.5894 -46.2753 181° South 426 490 36,000  Level FlightAware ADS-B (SDAM)
04:17AM -20.6490 -46.2757 181° South 425 489 36,000  Level FlightAware ADS-B (SDAM)
04:17AM -20.7056 -46.2761 181° South 424 488 36,000  Level FlightAware ADS-B (SDAM)
04:18AM -20.7675 -46.2766 181° South 423 487 36,000  Level FlightAware ADS-B (SDAM)
04:18AM -20.8253 -46.2770 181° South 422 486 36,000  Level FlightAware ADS-B (SDAM)
04:19AM -20.8830 -46.2775 181° South 421 484 36,000  Level FlightAware ADS-B (SDAM)
04:19AM -20.9428 -46.2779 181° South 421 484 36,000  Level FlightAware ADS-B (SDAM)
04:20AM -20.9993 -46.2783 181° South 422 486 36,000  Level FlightAware ADS-B (SDAM)
04:20AM -21.0588 -46.2787 181° South 423 487 36,000  Level FlightAware ADS-B (SDAM)
04:21AM -21.1188 -46.2792 181° South 424 488 36,000  Level FlightAware ADS-B (SDAM)
04:21AM -21.1776 -46.2797 181° South 425 489 36,000  Level FlightAware ADS-B (SDAM)
04:22AM -21.2370 -46.2801 181° South 425 489 36,000  Level FlightAware ADS-B (SDAM)
04:22AM -21.2961 -46.2805 181° South 425 489 36,000  Level FlightAware ADS-B (SDAM)
04:23AM -21.3555 -46.2808 181° South 424 488 36,000  Level FlightAware ADS-B (SDAM)
04:23AM -21.4144 -46.2812 181° South 419 482 36,000  Level FlightAware ADS-B (SDAM)
04:24AM -21.4727 -46.2816 181° South 421 484 36,000  Level FlightAware ADS-B (SDAM)
04:24AM -21.5301 -46.2822 181° South 425 489 36,000  Level FlightAware ADS-B (SDAM)
04:25AM -21.5910 -46.2826 181° South 426 490 36,000  Level FlightAware ADS-B (SDAM)
04:25AM -21.6483 -46.2831 181° South 426 490 36,000  Level FlightAware ADS-B (SDAM)
04:26AM -21.7088 -46.2835 181° South 427 491 36,000  Level FlightAware ADS-B (SDAM)
04:26AM -21.7678 -46.2839 181° South 429 494 36,000  Level FlightAware ADS-B (SDAM)
04:27AM -21.8278 -46.2844 181° South 429 494 36,000  Level FlightAware ADS-B (SDAM)
04:27AM -21.8878 -46.2848 181° South 429 494 36,000  Level FlightAware ADS-B (SDAM)
04:28AM -21.9478 -46.2853 181° South 429 494 36,000  Level FlightAware ADS-B (SDAM)
04:28AM -22.0079 -46.2857 181° South 429 494 36,000 -120 Level FlightAware ADS-B (SDAM)
04:29AM -22.0661 -46.2862 181° South 430 495 35,900 -1,680 Descending FlightAware ADS-B (SDAM)
04:29AM -22.1287 -46.2866 181° South 444 511 34,300 -3,120 Descending FlightAware ADS-B (SDAM)
04:30AM -22.1898 -46.2871 181° South 442 509 32,800 -3,300 Descending FlightAware ADS-B (SDAM)
04:30AM -22.2515 -46.2875 181° South 445 512 31,100 -2,640 Descending FlightAware ADS-B (SDAM)
04:31AM -22.3128 -46.2879 181° South 431 496 30,200 -2,040 Descending FlightAware ADS-B (SDAM)
04:31AM -22.3720 -46.2882 181° South 425 489 29,100 -2,220 Descending FlightAware ADS-B (SDAM)
04:32AM -22.4311 -46.2887 181° South 420 483 28,000 -2,220 Descending FlightAware ADS-B (SDAM)
04:32AM -22.4868 -46.2879 178° South 415 478 26,900 -2,400 Descending FlightAware ADS-B (SDAM)
04:33AM -22.5464 -46.2879 186° South 411 473 25,600 -3,180 Descending FlightAware ADS-B (SDAM)
04:33AM -22.5653 -46.2918 196° South 416 479 24,800 -4,680 Descending FlightAware ADS-B (SDAM)
04:33AM -22.6191 -46.3163 205° Southwest 434 499 22,500 -4,620 Descending FlightAware ADS-B (SDAM)
04:34AM -22.6759 -46.3445 205° Southwest 448 516 20,200 -3,840 Descending FlightAware ADS-B (SDAM)
04:34AM -22.7333 -46.3722 204° Southwest 441 507 18,600 -3,120 Descending FlightAware ADS-B (SDAM)
04:35AM -22.7880 -46.3978 204° Southwest 433 498 17,100 -3,060 Descending FlightAware ADS-B (SDAM)
04:35AM -22.8434 -46.4239 204° Southwest 428 493 15,600 -2,820 Descending FlightAware ADS-B (SDAM)
04:36AM -22.8967 -46.4492 204° Southwest 420 483 14,300 -2,520 Descending FlightAware ADS-B (SDAM)
04:36AM -22.9498 -46.4745 204° Southwest 409 471 13,100 -2,220 Descending FlightAware ADS-B (SDAM)
04:37AM -22.9992 -46.4980 204° Southwest 394 453 12,100 -2,340 Descending FlightAware ADS-B (SDAM)
04:37AM -23.0513 -46.5229 204° Southwest 388 447 10,800 -2,040 Descending FlightAware ADS-B (SDAM)
04:38AM -23.0994 -46.5459 204° Southwest 368 423 10,100 -840 Descending FlightAware ADS-B (SDAM)
04:38AM -23.1440 -46.5672 204° Southwest 332 382 10,000 -300 Descending FlightAware ADS-B (SDAM)
04:39AM -23.1644 -46.5769 204° Southwest 320 368 9,900 -660 Descending FlightAware ADS-B (SDAM)
04:39AM -23.1845 -46.5866 205° Southwest 311 358 9,700 -1,020 Descending FlightAware ADS-B (SDAM)
04:39AM -23.2042 -46.5961 205° Southwest 305 351 9,400 -1,620 Descending FlightAware ADS-B (SDAM)
04:39AM -23.2233 -46.6054 205° Southwest 305 351 8,900 -1,620 Descending FlightAware ADS-B (SDAM)
04:40AM -23.2427 -46.6147 205° Southwest 302 348 8,600 -1,200 Descending FlightAware ADS-B (SDAM)
04:40AM -23.2616 -46.6238 204° Southwest 292 336 8,300 -1,440 Descending FlightAware ADS-B (SDAM)
04:40AM -23.2801 -46.6336 208° Southwest 292 336 7,900 -1,620 Descending FlightAware ADS-B (SDAM)
04:40AM -23.2977 -46.6437 209° Southwest 291 335 7,500 -1,620 Descending FlightAware ADS-B (SDAM)
04:41AM -23.3156 -46.6543 209° Southwest 289 333 7,100 -1,200 Descending FlightAware ADS-B (SDAM)
04:41AM -23.3333 -46.6647 209° Southwest 280 322 6,900 -360 Descending FlightAware ADS-B (SDAM)
04:41AM -23.3550 -46.6776 209° Southwest 262 302 6,900 -360 Level FlightAware ADS-B (SDAM)
04:42AM -23.3705 -46.6867 209° Southwest 252 290 6,700 -1,020 Descending FlightAware ADS-B (SDAM)
04:42AM -23.3858 -46.6957 209° Southwest 248 285 6,400 -1,620 Descending FlightAware ADS-B (SDAM)
04:42AM -23.4013 -46.7038 199° South 247 284 5,900 -1,800 Descending FlightAware ADS-B (SDAM)
04:42AM -23.4072 -46.7052 193° South 246 283 5,800 -600 Descending FlightAware ADS-B (SDAM)
04:42AM -23.4121 -46.7054 178° South 242 278 5,800 -600 Level FlightAware ADS-B (SDAM)
04:42AM -23.4181 -46.7046 169° South 237 273 5,700 -1,200 Descending FlightAware ADS-B (SDAM)
04:42AM -23.4238 -46.7029 161° South 234 269 5,600 -1,200 Descending FlightAware ADS-B (SDAM)
04:42AM -23.4282 -46.7008 154° Southeast 231 266 5,500 -600 Descending FlightAware ADS-B (SDAM)
04:43AM -23.4331 -46.6975 146° Southeast 224 258 5,500 -240 Level FlightAware ADS-B (SDAM)
04:43AM -23.4495 -46.6858 148° Southeast 203 234 5,400 -180 Descending FlightAware ADS-B (SDAM)
04:43AM -23.4647 -46.6762 150° Southeast 184 212 5,400  Level FlightAware ADS-B (SDAM)
04:43AM -23.4681 -46.6735 142° Southeast 181 208 5,400  Level FlightAware ADS-B (SDAM)
04:43AM -23.4709 -46.6703 131° Southeast 175 201 5,400  Level FlightAware ADS-B (SDAM)
04:44AM -23.4780 -46.6602 125° Southeast 172 198 5,400 -300 Level FlightAware ADS-B (SDAM)
04:44AM -23.4799 -46.6563 115° Southeast 172 198 5,300 -720 Descending FlightAware ADS-B (SDAM)
04:44AM -23.4807 -46.6531 103° East 167 192 5,300 -600 Level FlightAware ADS-B (SDAM)
04:44AM -23.4811 -46.6492 94° East 163 188 5,200 -1,140 Descending FlightAware ADS-B (SDAM)
04:44AM -23.4808 -46.6444 87° East 161 185 5,100 -1,500 Descending FlightAware ADS-B (SDAM)
04:44AM -23.4804 -46.6421 78° East 155 178 5,000 -720 Descending FlightAware ADS-B (SDAM)
04:44AM -23.4777 -46.6307 74° East 153 176 4,900 -420 Descending FlightAware ADS-B (SDAM)
04:47AM -23.4321 -46.4695 73° East  Level Estimated
04:48AM -23.4321 -46.4695 North  Level Estimated
04:49AM -23.4321 -46.4695 North  Level Estimated
04:50AM -23.4321 -46.4695 North  Level Estimated
04:51AM -23.4321 -46.4695 North  Level Estimated
04:52AM -23.4321 -46.4695 North  Level Estimated
04:53AM -23.4321 -46.4695 North  Level Estimated
04:54AM -23.4321 -46.4695 North  Level Estimated
04:55AM -23.4321 -46.4695 North  Level Estimated
04:56AM -23.4321 -46.4695 North  Level Estimated
04:57AM -23.4321 -46.4695 North  Level Estimated
04:58AM -23.4321 -46.4695 North  Level Estimated
04:59AM -23.4321 -46.4695 North  Level Estimated
05:00AM -23.4321 -46.4695 North  Level Estimated